createdAt,value
2024-04-15T00:01:42.222Z,13.75
2024-04-15T00:06:44.866Z,13.90
2024-04-15T00:11:49.254Z,13.93
2024-04-15T00:16:51.979Z,13.87
2024-04-15T00:21:54.715Z,13.84
2024-04-15T00:26:58.527Z,13.76
2024-04-15T00:32:01.157Z,13.74
2024-04-15T00:37:03.766Z,13.93
2024-04-15T00:42:07.325Z,13.83
2024-04-15T00:47:11.143Z,13.75
2024-04-15T00:52:14.148Z,13.74
2024-04-15T00:57:16.785Z,13.75
2024-04-15T01:02:19.380Z,13.65
2024-04-15T01:07:22.763Z,13.41
2024-04-15T01:12:25.310Z,13.36
2024-04-15T01:17:27.916Z,13.42
2024-04-15T01:23:00.205Z,13.41
2024-04-15T01:28:04.105Z,13.50
2024-04-15T01:33:07.288Z,13.54
2024-04-15T01:38:09.920Z,13.49
2024-04-15T01:43:12.689Z,13.39
2024-04-15T01:48:15.418Z,13.36
2024-04-15T01:53:18.029Z,13.29
2024-04-15T01:58:20.664Z,13.17
2024-04-15T02:03:23.250Z,13.06
2024-04-15T02:08:25.851Z,12.90
2024-04-15T02:13:28.446Z,12.72
2024-04-15T02:18:31.186Z,12.60
2024-04-15T02:23:33.815Z,12.47
2024-04-15T02:28:36.665Z,12.35
2024-04-15T02:33:39.206Z,12.46
2024-04-15T02:38:42.193Z,12.56
2024-04-15T02:43:44.983Z,12.61
2024-04-15T02:48:47.592Z,12.49
2024-04-15T02:53:50.783Z,12.59
2024-04-15T02:58:53.364Z,12.60
2024-04-15T03:03:56.165Z,12.36
2024-04-15T03:08:58.816Z,12.29
2024-04-15T03:14:01.401Z,12.24
2024-04-15T03:19:04.062Z,12.33
2024-04-15T03:24:06.707Z,12.40
2024-04-15T03:29:09.249Z,12.31
2024-04-15T03:34:11.840Z,12.22
2024-04-15T03:39:14.400Z,12.19
2024-04-15T03:44:16.941Z,12.24
2024-04-15T03:49:19.502Z,12.25
2024-04-15T03:54:22.045Z,12.23
2024-04-15T03:59:24.604Z,12.25
2024-04-15T04:04:28.316Z,12.12
2024-04-15T04:09:30.994Z,11.97
2024-04-15T04:14:34.128Z,11.89
2024-04-15T04:19:37.858Z,11.88
2024-04-15T04:24:40.400Z,11.83
2024-04-15T04:29:43.025Z,11.73
2024-04-15T04:34:45.574Z,11.74
2024-04-15T04:39:48.126Z,11.73
2024-04-15T04:44:58.356Z,11.77
2024-04-15T04:50:01.952Z,11.78
2024-04-15T04:55:04.660Z,11.66
2024-04-15T05:00:07.938Z,11.57
2024-04-15T05:05:10.543Z,11.50
2024-04-15T05:10:13.337Z,11.40
2024-04-15T05:15:15.916Z,11.60
2024-04-15T05:20:18.472Z,11.72
2024-04-15T05:25:21.120Z,11.83
2024-04-15T05:30:23.739Z,11.94
2024-04-15T05:35:26.264Z,11.97
2024-04-15T05:40:28.884Z,11.99
2024-04-15T05:45:31.553Z,11.89
2024-04-15T05:50:34.565Z,11.90
2024-04-15T05:55:37.589Z,11.94
2024-04-15T06:00:40.173Z,11.89
2024-04-15T06:05:42.739Z,11.77
2024-04-15T06:10:49.484Z,11.81
2024-04-15T06:15:52.945Z,11.91
2024-04-15T06:20:55.531Z,12.06
2024-04-15T06:25:58.154Z,12.07
2024-04-15T06:31:01.300Z,12.21
2024-04-15T06:36:04.028Z,12.41
2024-04-15T06:41:06.575Z,12.55
2024-04-15T06:46:09.329Z,13.08
2024-04-15T06:51:12.210Z,13.23
2024-04-15T06:56:15.276Z,13.31
2024-04-15T07:01:18.079Z,13.17
2024-04-15T07:06:20.721Z,13.29
2024-04-15T07:11:23.316Z,13.18
2024-04-15T07:16:25.985Z,13.28
2024-04-15T07:21:28.593Z,13.98
2024-04-15T07:26:31.127Z,14.30
2024-04-15T07:31:33.821Z,14.65
2024-04-15T07:36:36.460Z,15.11
2024-04-15T07:41:39.090Z,15.19
2024-04-15T07:46:41.736Z,14.93
2024-04-15T07:51:44.365Z,14.70
2024-04-15T07:56:47.064Z,15.00
2024-04-15T08:01:50.314Z,15.07
2024-04-15T08:07:03.754Z,14.76
2024-04-15T08:12:13.441Z,14.86
2024-04-15T08:17:16.027Z,15.04
2024-04-15T08:22:18.634Z,14.68
2024-04-15T08:27:22.947Z,14.73
2024-04-15T08:32:25.592Z,15.05
2024-04-15T08:37:28.240Z,15.28
2024-04-15T08:42:55.325Z,15.68
2024-04-15T08:47:59.490Z,16.01
2024-04-15T08:53:02.114Z,16.61
2024-04-15T08:58:05.611Z,17.17
2024-04-15T09:03:08.839Z,17.01
2024-04-15T09:08:13.790Z,17.34
2024-04-15T09:13:18.010Z,17.60
2024-04-15T09:18:20.757Z,16.97
2024-04-15T09:23:26.033Z,17.47
2024-04-15T09:28:29.247Z,17.35
2024-04-15T09:33:32.648Z,17.44
2024-04-15T09:38:40.602Z,17.71
2024-04-15T09:43:47.851Z,17.92
2024-04-15T09:48:50.810Z,17.74
2024-04-15T09:53:54.952Z,17.47
2024-04-15T09:58:58.551Z,17.48
2024-04-15T10:04:06.023Z,17.60
2024-04-15T10:09:10.913Z,17.44
2024-04-15T10:14:14.948Z,17.12
2024-04-15T10:19:25.428Z,17.31
2024-04-15T10:24:28.568Z,17.45
2024-04-15T10:29:34.270Z,17.46
2024-04-15T10:34:50.530Z,17.34
2024-04-15T10:39:53.385Z,17.68
2024-04-15T10:44:56.376Z,17.71
2024-04-15T10:50:00.554Z,17.52
2024-04-15T10:55:03.202Z,17.38
2024-04-15T11:00:10.142Z,17.34
2024-04-15T11:05:13.579Z,17.53
2024-04-15T11:10:16.767Z,17.46
2024-04-15T11:15:20.180Z,17.75
2024-04-15T11:20:25.086Z,18.13
2024-04-15T11:25:31.215Z,18.16
2024-04-15T11:30:35.892Z,18.10
2024-04-15T11:35:51.574Z,18.59
2024-04-15T11:40:54.600Z,18.59
2024-04-15T11:45:58.003Z,18.23
2024-04-15T11:51:00.673Z,18.08
2024-04-15T11:56:04.719Z,17.83
2024-04-15T12:01:07.862Z,18.11
2024-04-15T12:06:12.363Z,18.47
2024-04-15T12:11:15.701Z,18.87
2024-04-15T12:16:18.362Z,18.96
2024-04-15T12:21:21.059Z,19.31
2024-04-15T12:26:26.581Z,19.51
2024-04-15T12:31:29.215Z,19.60
2024-04-15T12:36:31.787Z,19.36
2024-04-15T12:41:34.416Z,19.51
2024-04-15T12:46:37.226Z,19.68
2024-04-15T12:51:39.799Z,19.61
2024-04-15T12:56:42.365Z,19.13
2024-04-15T13:01:54.932Z,18.46
2024-04-15T13:07:05.521Z,18.36
2024-04-15T13:12:11.534Z,18.22
2024-04-15T13:17:14.589Z,18.05
2024-04-15T13:22:17.266Z,17.69
2024-04-15T13:27:20.298Z,17.65
2024-04-15T13:32:22.851Z,17.71
2024-04-15T13:37:26.099Z,17.18
2024-04-15T13:42:29.930Z,16.96
2024-04-15T13:47:32.817Z,17.15
2024-04-15T13:52:36.227Z,17.20
2024-04-15T13:57:38.830Z,17.32
2024-04-15T14:02:41.739Z,16.96
2024-04-15T14:07:47.990Z,17.19
2024-04-15T14:12:51.368Z,17.46
2024-04-15T14:17:56.740Z,17.11
2024-04-15T14:22:59.647Z,17.19
2024-04-15T14:28:02.249Z,17.38
2024-04-15T14:33:05.160Z,17.49
2024-04-15T14:38:07.824Z,17.33
2024-04-15T14:43:10.403Z,17.45
2024-04-15T14:48:13.270Z,16.65
2024-04-15T14:53:15.943Z,16.34
2024-04-15T14:58:18.531Z,16.43
2024-04-15T15:03:21.165Z,16.39
2024-04-15T15:08:24.183Z,16.41
2024-04-15T15:13:26.802Z,16.45
2024-04-15T15:18:29.733Z,16.55
2024-04-15T15:23:32.639Z,16.62
2024-04-15T15:28:35.501Z,16.42
2024-04-15T15:33:38.101Z,16.12
2024-04-15T15:38:44.488Z,15.98
2024-04-15T15:43:48.625Z,15.59
2024-04-15T15:48:51.252Z,15.47
2024-04-15T15:53:53.850Z,15.93
2024-04-15T15:58:56.638Z,15.76
2024-04-15T16:03:59.839Z,15.43
2024-04-15T16:09:02.945Z,15.04
2024-04-15T16:14:06.988Z,14.52
2024-04-15T16:19:10.680Z,13.97
2024-04-15T16:24:13.628Z,12.60
2024-04-15T16:29:16.450Z,12.00
2024-04-15T16:34:19.042Z,10.69
2024-04-15T16:39:21.633Z,9.85
2024-04-15T16:44:24.180Z,9.58
2024-04-15T16:49:33.224Z,9.74
2024-04-15T16:54:37.093Z,9.21
2024-04-15T16:59:39.711Z,9.05
2024-04-15T17:04:42.413Z,8.62
2024-04-15T17:09:45.977Z,8.20
2024-04-15T17:14:49.317Z,8.03
2024-04-15T17:19:52.498Z,8.32
2024-04-15T17:24:56.683Z,8.36
2024-04-15T17:29:59.637Z,8.22
2024-04-15T17:35:02.400Z,8.33
2024-04-15T17:40:05.595Z,8.39
2024-04-15T17:45:08.324Z,8.20
2024-04-15T17:50:10.933Z,8.32
2024-04-15T17:55:19.802Z,8.18
2024-04-15T18:00:22.604Z,8.18
2024-04-15T18:05:25.377Z,8.38
2024-04-15T18:10:27.995Z,8.38
2024-04-15T18:15:30.612Z,8.13
2024-04-15T18:20:33.625Z,7.81
2024-04-15T18:25:39.927Z,7.53
2024-04-15T18:30:43.587Z,7.69
2024-04-15T18:35:46.245Z,7.75
2024-04-15T18:40:49.998Z,7.86
2024-04-15T18:45:53.439Z,7.67
2024-04-15T18:50:56.211Z,7.56
2024-04-15T18:55:59.042Z,7.54
2024-04-15T19:01:02.860Z,7.33
2024-04-15T19:06:05.728Z,7.17
2024-04-15T19:11:08.466Z,7.08
2024-04-15T19:16:11.232Z,6.93
2024-04-15T19:21:16.088Z,6.86
2024-04-15T19:26:18.693Z,6.80
2024-04-15T19:31:30.005Z,6.75
2024-04-15T19:36:37.530Z,6.75
2024-04-15T19:41:41.122Z,6.63
2024-04-15T19:46:45.617Z,6.55
2024-04-15T19:51:48.953Z,6.53
2024-04-15T19:56:52.051Z,6.42
2024-04-15T20:01:58.320Z,6.35
2024-04-15T20:07:02.392Z,6.39
2024-04-15T20:12:06.412Z,6.40
2024-04-15T20:17:11.534Z,6.31
2024-04-15T20:22:15.792Z,6.17
2024-04-15T20:27:18.777Z,6.16
2024-04-15T20:32:22.627Z,6.34
2024-04-15T20:37:26.955Z,6.22
2024-04-15T20:42:30.077Z,6.26
2024-04-15T20:47:34.028Z,6.18
2024-04-15T20:52:38.187Z,6.22
2024-04-15T20:57:41.205Z,6.23
2024-04-15T21:02:43.975Z,6.23
2024-04-15T21:07:47.803Z,6.24
2024-04-15T21:12:50.910Z,6.17
2024-04-15T21:17:54.423Z,6.17
2024-04-15T21:22:57.104Z,6.46
2024-04-15T21:27:59.708Z,6.55
2024-04-15T21:33:03.351Z,6.59
2024-04-15T21:38:06.092Z,6.50
2024-04-15T21:43:08.668Z,6.39
2024-04-15T21:48:11.248Z,6.42
2024-04-15T21:53:13.831Z,6.52
2024-04-15T21:58:16.525Z,6.47
2024-04-15T22:03:19.101Z,6.48
2024-04-15T22:08:21.662Z,6.47
2024-04-15T22:13:24.320Z,6.46
2024-04-15T22:18:26.971Z,6.45
2024-04-15T22:23:30.106Z,6.52
2024-04-15T22:28:32.752Z,6.49
2024-04-15T22:33:35.487Z,6.59
2024-04-15T22:38:38.220Z,6.72
2024-04-15T22:43:40.807Z,6.85
2024-04-15T22:48:43.393Z,6.92
2024-04-15T22:53:45.952Z,7.04
2024-04-15T22:58:48.561Z,7.17
2024-04-15T23:03:51.151Z,7.32
2024-04-15T23:08:55.871Z,7.52
2024-04-15T23:13:58.397Z,7.68
2024-04-15T23:19:00.973Z,7.59
2024-04-15T23:24:03.608Z,7.49
2024-04-15T23:29:06.269Z,7.32
2024-04-15T23:34:08.877Z,6.87
2024-04-15T23:39:13.210Z,6.79
2024-04-15T23:44:15.804Z,6.59
2024-04-15T23:49:36.846Z,6.40
2024-04-15T23:54:58.136Z,6.53
